Apodaca, New Mexico
Current Conditions -  °F | °C
As of 1:55 AM on Sunday 26 Oct 2014 (Local Time) from KSKX Reporting Station
Clear Clear  
Wind Chill:   Ceiling: Unl
Heat Index:   Visibility: 10mi
Dew Point: -6°   Wind: 0mph
Humidity: 45%   Direction: NA
Pressure: 30.25"   Gusts: NA
Location:  36.1644°N, 105.863°W
Report Text: KSKX 260755Z AUTO 00000KT 10SM CLR 05/M06 A3025 RMK AO1
Loading
Personal Weather Stations






























Interactive Weather Map
Tropical Storm Tracking
New forecast layout! Learn more

10-Day Weather Forecast

Advertisements
Track Severe Weather on mobile